createdAt,value
2018-09-17T00:13:52.376Z,15.3
2018-09-17T00:29:04.875Z,14.9
2018-09-17T00:44:04.732Z,14.2
2018-09-17T01:04:04.847Z,13.6
2018-09-17T01:19:04.756Z,13.6
2018-09-17T01:34:18.120Z,15
2018-09-17T01:49:17.841Z,14.6
2018-09-17T02:09:19.156Z,14.5
2018-09-17T02:24:31.237Z,15.7
2018-09-17T02:39:31.562Z,19.6
2018-09-17T02:59:31.398Z,23.2
2018-09-17T03:14:31.370Z,25.6
2018-09-17T03:29:44.858Z,19.6
2018-09-17T03:44:44.648Z,26.9
2018-09-17T04:04:47.204Z,33.7
2018-09-17T04:19:59.844Z,38
2018-09-17T04:34:59.919Z,40.7
2018-09-17T04:54:59.718Z,26.3
2018-09-17T05:25:13.061Z,26.6
2018-09-17T05:45:13.003Z,23.5
2018-09-17T06:00:15.669Z,24.3
2018-09-17T06:15:27.737Z,20.7
2018-09-17T06:30:27.859Z,20.3
2018-09-17T07:05:28.354Z,16.6
2018-09-17T07:20:40.565Z,18.9
2018-09-17T07:40:40.499Z,27.4
2018-09-17T08:25:41.691Z,33.1
2018-09-17T08:45:54.649Z,28.1
2018-09-17T09:00:54.577Z,27
2018-09-17T09:16:09.546Z,28.7
2018-09-17T09:36:09.246Z,26.6
2018-09-17T10:06:09.446Z,23.5
2018-09-17T10:26:10.100Z,20.9
2018-09-17T10:41:09.877Z,21.2
2018-09-17T11:11:11.010Z,16.4
2018-09-17T11:31:24.387Z,14.1
2018-09-17T11:46:24.092Z,12.1
2018-09-17T12:01:37.919Z,11.2
2018-09-17T12:21:37.807Z,10
2018-09-17T12:36:37.809Z,7.2
2018-09-17T12:51:37.731Z,8.7
2018-09-17T13:11:51.343Z,8.8
2018-09-17T13:26:51.303Z,8.8
2018-09-17T13:41:51.175Z,7.2
2018-09-17T13:57:06.315Z,8.8
2018-09-17T14:32:06.748Z,8.1
2018-09-17T14:47:19.296Z,7.4
2018-09-17T15:02:19.343Z,7.4
2018-09-17T15:22:19.971Z,8.3
2018-09-17T15:37:19.173Z,9.2
2018-09-17T15:52:30.672Z,8.2
2018-09-17T16:12:30.313Z,8.7
2018-09-17T16:27:30.276Z,7.1
2018-09-17T16:42:30.325Z,7.3
2018-09-17T16:57:33.233Z,7.9
2018-09-17T17:17:45.015Z,7.1
2018-09-17T17:32:45.038Z,8.7
2018-09-17T17:47:56.845Z,7.7
2018-09-17T18:07:56.604Z,9
2018-09-17T18:22:56.800Z,9.2
2018-09-17T18:37:56.802Z,12
2018-09-17T18:52:58.232Z,11.4
2018-09-17T19:13:10.357Z,12.9
2018-09-17T19:28:13.541Z,14.4
2018-09-17T19:43:25.843Z,14.7
2018-09-17T20:03:22.481Z,12.1
2018-09-17T20:18:23.828Z,14.3
2018-09-17T20:33:22.858Z,11.9
2018-09-17T20:53:35.757Z,14.1
2018-09-17T21:23:35.575Z,12.4
2018-09-17T21:38:51.191Z,11.4
2018-09-17T22:13:53.202Z,14.2
2018-09-17T22:29:05.881Z,12.6
2018-09-17T22:49:04.998Z,14
2018-09-17T23:04:07.319Z,13.6
2018-09-17T23:34:19.449Z,13.5
2018-09-17T23:54:31.899Z,11.9
